Time;durP1;ratioP1;P1;durP2;ratioP2;P2;SDS_P1;SDS_P2;PMS_P1;PMS_P2;Temp;Humidity;BMP_temperature;BMP_pressure;BME280_temperature;BME280_humidity;BME280_pressure;Samples;Min_cycle;Max_cycle;Signal;HPM_P1;HPM_P2
2023/08/11 00:01:15;;;;;;;3.72;1.75;;;;;;;17.72;85.44;95235.72;4993067;28;20215;-74
2023/08/11 00:03:43;;;;;;;1.60;1.48;;;;;;;17.76;86.12;95238.69;4993996;28;20196;-74
2023/08/11 00:06:08;;;;;;;3.25;1.75;;;;;;;17.77;86.25;95245.63;4993978;28;20604;-74
2023/08/11 00:08:36;;;;;;;1.60;1.50;;;;;;;17.75;85.99;95243.19;4993989;28;20181;-74
2023/08/11 00:11:02;;;;;;;1.85;1.73;;;;;;;17.64;86.05;95228.16;4993617;28;20208;-74
2023/08/11 00:13:27;;;;;;;2.00;1.58;;;;;;;17.70;85.59;95221.84;4993680;28;20606;-74
2023/08/11 00:15:53;;;;;;;2.20;1.70;;;;;;;17.66;85.06;95221.50;4993524;28;20216;-74
2023/08/11 00:18:19;;;;;;;3.28;1.70;;;;;;;17.62;84.57;95215.09;4993419;28;20201;-74
2023/08/11 00:20:45;;;;;;;2.10;1.90;;;;;;;17.65;83.88;95235.88;4993402;28;20216;-74
2023/08/11 00:23:11;;;;;;;3.63;1.60;;;;;;;17.52;83.45;95217.56;4993445;28;20651;-74
2023/08/11 00:25:36;;;;;;;2.72;1.40;;;;;;;17.56;83.21;95239.97;4993410;28;20180;-74
2023/08/11 00:28:01;;;;;;;1.63;1.50;;;;;;;17.47;83.57;95222.81;4993390;28;20177;-74
2023/08/11 00:30:27;;;;;;;3.63;2.17;;;;;;;17.51;83.66;95237.25;4993362;28;20622;-74
2023/08/11 00:32:52;;;;;;;3.00;1.80;;;;;;;17.51;83.56;95233.78;4992995;28;20268;-74
2023/08/11 00:35:18;;;;;;;2.38;1.92;;;;;;;17.45;83.84;95226.78;4993455;28;20255;-74
2023/08/11 00:37:44;;;;;;;2.88;1.80;;;;;;;17.39;83.76;95225.88;4992599;28;20181;-74
2023/08/11 00:40:11;;;;;;;7.32;2.13;;;;;;;17.33;84.33;95229.53;4975723;28;20185;-74
2023/08/11 00:42:37;;;;;;;4.13;2.15;;;;;;;17.18;84.34;95213.34;4992971;28;20180;-74
2023/08/11 00:45:03;;;;;;;5.82;4.60;;;;;;;17.11;84.88;95212.69;4992949;28;20184;-74
2023/08/11 00:47:29;;;;;;;11.05;6.25;;;;;;;17.23;85.26;95240.81;4993158;28;20173;-74
2023/08/11 00:49:55;;;;;;;27.08;14.65;;;;;;;17.22;85.00;95243.72;4992570;28;20189;-74
2023/08/11 00:52:21;;;;;;;25.90;15.07;;;;;;;17.22;85.33;95251.69;4992860;28;20189;-74
2023/08/11 00:54:46;;;;;;;10.88;6.28;;;;;;;17.25;84.92;95256.53;4993005;28;20177;-74
2023/08/11 00:57:13;;;;;;;7.53;4.75;;;;;;;17.21;85.29;95248.22;4988529;28;20233;-74
2023/08/11 00:59:39;;;;;;;17.20;9.38;;;;;;;17.17;85.84;95246.31;4992315;28;20470;-74
2023/08/11 01:02:06;;;;;;;11.88;7.40;;;;;;;17.23;85.59;95242.66;4992724;28;20169;-74
2023/08/11 01:04:33;;;;;;;10.85;6.75;;;;;;;17.24;85.30;95231.78;4993010;28;20187;-74
2023/08/11 01:07:19;;;;;;;9.38;6.05;;;;;;;17.26;85.06;95232.34;4992565;28;20220;-74
2023/08/11 01:09:45;;;;;;;8.45;4.70;;;;;;;17.28;84.96;95238.25;4992844;28;20188;-74
2023/08/11 01:12:23;;;;;;;6.20;4.38;;;;;;;17.30;84.61;95232.66;4992591;28;20200;-74
2023/08/11 01:15:00;;;;;;;5.25;4.30;;;;;;;17.22;84.57;95225.09;4992318;28;20742;-74
2023/08/11 01:17:27;;;;;;;9.25;4.05;;;;;;;17.25;84.40;95232.59;4992656;28;20232;-74
2023/08/11 01:19:52;;;;;;;3.53;3.22;;;;;;;17.19;84.41;95233.56;4992579;28;20252;-74
2023/08/11 01:22:23;;;;;;;4.37;3.40;;;;;;;17.02;84.53;95208.81;4991172;28;20922;-74
2023/08/11 01:24:49;;;;;;;4.22;2.45;;;;;;;17.04;84.09;95222.69;4990822;28;20607;-74
2023/08/11 01:27:15;;;;;;;3.08;2.47;;;;;;;17.02;84.16;95233.56;4992195;28;20185;-74
2023/08/11 01:29:40;;;;;;;4.00;2.40;;;;;;;17.09;83.60;95249.38;4983264;28;20177;-74
2023/08/11 01:32:08;;;;;;;4.57;2.63;;;;;;;17.08;83.92;95247.75;4992377;28;20189;-74
2023/08/11 01:34:33;;;;;;;3.17;2.10;;;;;;;17.06;83.77;95252.50;4990300;28;20268;-74
2023/08/11 01:37:00;;;;;;;4.32;1.83;;;;;;;17.03;83.78;95245.03;4992165;28;20259;-74
2023/08/11 01:39:26;;;;;;;4.18;2.00;;;;;;;17.02;83.76;95248.72;4992026;28;20674;-74
2023/08/11 01:41:52;;;;;;;2.10;1.73;;;;;;;16.96;83.82;95251.28;4992031;28;20172;-74
2023/08/11 01:44:18;;;;;;;3.67;2.05;;;;;;;16.93;84.06;95250.97;4992301;28;20173;-74
2023/08/11 01:46:44;;;;;;;2.80;2.15;;;;;;;16.75;84.33;95216.63;4992017;28;20185;-74
2023/08/11 01:49:12;;;;;;;6.95;1.90;;;;;;;16.88;84.28;95243.69;4991591;28;20181;-74
2023/08/11 01:51:40;;;;;;;2.83;1.70;;;;;;;16.72;84.52;95225.88;4983984;28;20201;-74
2023/08/11 01:54:09;;;;;;;13.77;2.40;;;;;;;16.73;84.68;95222.19;4991988;28;20183;-74
2023/08/11 01:56:36;;;;;;;2.10;1.90;;;;;;;16.68;84.71;95222.09;4991448;28;20228;-74
2023/08/11 01:59:03;;;;;;;6.05;1.92;;;;;;;16.79;84.51;95239.00;4991835;28;20188;-74
2023/08/11 02:01:28;;;;;;;10.25;2.28;;;;;;;16.75;84.85;95238.69;4991791;28;20565;-74
2023/08/11 02:03:53;;;;;;;2.80;1.80;;;;;;;16.74;84.77;95236.28;4986563;28;20178;-74
2023/08/11 02:06:19;;;;;;;4.90;2.10;;;;;;;16.72;84.78;95244.50;4988804;28;20185;-74
2023/08/11 02:08:46;;;;;;;3.00;1.90;;;;;;;16.64;85.23;95242.22;4991574;28;20252;-74
2023/08/11 02:11:12;;;;;;;1.80;1.70;;;;;;;16.54;85.04;95232.19;4991681;28;20189;-74
2023/08/11 02:13:37;;;;;;;2.22;1.80;;;;;;;16.65;84.91;95241.19;4991871;28;20177;-74
2023/08/11 02:16:03;;;;;;;3.33;2.00;;;;;;;16.68;84.75;95245.22;4987216;28;20225;-74
2023/08/11 02:18:29;;;;;;;3.33;2.13;;;;;;;16.67;84.90;95241.75;4989693;28;20665;-74
2023/08/11 02:20:54;;;;;;;5.25;2.17;;;;;;;16.67;84.77;95246.25;4991694;28;20180;-74
2023/08/11 02:23:20;;;;;;;2.97;1.92;;;;;;;16.58;84.88;95235.19;4991497;28;20181;-74
2023/08/11 02:25:45;;;;;;;3.08;1.80;;;;;;;16.51;85.14;95226.53;4985243;28;20192;-74
2023/08/11 02:28:11;;;;;;;2.15;1.95;;;;;;;16.40;85.78;95251.31;4991534;28;20272;-74
2023/08/11 02:30:36;;;;;;;2.08;1.88;;;;;;;16.40;86.17;95248.66;4991342;28;20196;-74
2023/08/11 02:33:01;;;;;;;9.25;2.25;;;;;;;16.39;86.08;95247.84;4989403;28;20204;-74
2023/08/11 02:35:27;;;;;;;3.92;2.00;;;;;;;16.29;86.55;95246.84;4991133;28;20176;-74
2023/08/11 02:37:52;;;;;;;2.17;1.83;;;;;;;16.31;86.95;95252.72;4991522;28;20169;-74
2023/08/11 02:40:19;;;;;;;1.75;1.65;;;;;;;16.34;86.94;95246.94;4987334;28;20666;-74
2023/08/11 02:42:52;;;;;;;2.08;1.88;;;;;;;16.39;86.89;95245.19;4991302;28;20187;-74
2023/08/11 02:45:17;;;;;;;3.92;1.80;;;;;;;16.41;86.32;95239.66;4983601;28;20550;-74
2023/08/11 02:47:43;;;;;;;1.90;1.77;;;;;;;16.47;86.30;95244.00;4991207;28;20181;-74
2023/08/11 02:50:09;;;;;;;4.10;1.60;;;;;;;16.47;86.40;95257.28;4991090;28;20185;-74
2023/08/11 02:52:35;;;;;;;2.47;1.80;;;;;;;16.31;86.88;95231.47;4991209;28;20264;-74
2023/08/11 02:55:02;;;;;;;2.63;1.90;;;;;;;16.36;87.06;95245.66;4991242;28;20537;-74
2023/08/11 02:57:28;;;;;;;3.50;2.10;;;;;;;16.41;87.13;95259.06;4991137;28;20174;-74
2023/08/11 02:59:53;;;;;;;5.80;1.98;;;;;;;16.41;87.35;95253.75;4991108;28;20204;-74
2023/08/11 03:02:18;;;;;;;3.65;2.00;;;;;;;16.40;87.40;95252.13;4994426;28;20632;-74
2023/08/11 03:04:44;;;;;;;4.05;2.10;;;;;;;16.38;87.64;95256.84;4995027;28;20171;-74
2023/08/11 03:07:09;;;;;;;2.92;1.75;;;;;;;16.37;87.52;95255.25;4994998;28;20182;-74
2023/08/11 03:09:35;;;;;;;3.28;2.00;;;;;;;16.32;87.72;95257.81;4995079;28;20257;-74
2023/08/11 03:12:01;;;;;;;2.63;1.98;;;;;;;16.20;87.74;95241.09;4990379;28;20302;-74
2023/08/11 03:14:26;;;;;;;4.25;2.30;;;;;;;16.09;87.82;95232.09;4994371;28;20224;-75
2023/08/11 03:16:53;;;;;;;4.15;2.22;;;;;;;16.29;88.18;95260.13;4994407;28;20177;-75
2023/08/11 03:19:19;;;;;;;2.25;2.00;;;;;;;16.33;88.25;95261.28;4994221;28;20181;-74
2023/08/11 03:21:44;;;;;;;4.03;2.00;;;;;;;16.18;88.59;95257.25;4994460;28;20232;-74
2023/08/11 03:24:10;;;;;;;15.33;8.73;;;;;;;16.17;88.93;95260.19;4993659;28;20412;-73
2023/08/11 03:26:36;;;;;;;4.95;2.88;;;;;;;16.25;88.54;95269.63;4994635;28;20561;-74
2023/08/11 03:29:02;;;;;;;4.25;2.33;;;;;;;16.30;88.20;95262.53;4994404;28;20177;-74
2023/08/11 03:31:27;;;;;;;3.42;2.30;;;;;;;16.33;88.11;95262.09;4994838;28;20201;-75
2023/08/11 03:33:53;;;;;;;5.88;2.35;;;;;;;16.22;87.71;95233.69;4990489;28;20232;-75
2023/08/11 03:36:19;;;;;;;3.35;2.05;;;;;;;16.37;87.45;95259.75;4992067;28;20209;-76
2023/08/11 03:38:44;;;;;;;3.13;2.33;;;;;;;16.38;87.44;95269.34;4994783;28;20636;-75
2023/08/11 03:41:10;;;;;;;5.43;2.25;;;;;;;16.36;87.55;95266.91;4995243;28;20173;-76
2023/08/11 03:43:35;;;;;;;4.22;2.45;;;;;;;16.40;87.88;95272.56;4993275;28;20176;-76
2023/08/11 03:46:01;;;;;;;6.13;2.80;;;;;;;16.37;87.51;95273.03;4995001;28;20172;-75
2023/08/11 03:48:26;;;;;;;9.57;2.83;;;;;;;16.36;87.95;95271.41;4994916;28;20259;-76
2023/08/11 03:50:51;;;;;;;4.88;2.42;;;;;;;16.36;87.95;95271.41;4994919;28;20201;-75
2023/08/11 03:53:17;;;;;;;3.88;2.55;;;;;;;16.37;88.26;95276.50;4990505;28;20177;-76
2023/08/11 03:55:45;;;;;;;10.93;3.33;;;;;;;16.38;88.67;95261.38;4995092;28;20177;-76
2023/08/11 03:58:13;;;;;;;5.13;3.20;;;;;;;16.51;88.50;95263.75;4994738;28;20724;-76
2023/08/11 04:00:39;;;;;;;6.55;5.40;;;;;;;16.59;88.26;95272.16;4994775;28;20727;-76
2023/08/11 04:03:04;;;;;;;6.18;5.03;;;;;;;16.55;87.85;95255.06;4994655;28;20240;-76
2023/08/11 04:05:30;;;;;;;10.30;3.88;;;;;;;16.78;87.94;95264.78;4988540;28;20189;-76
2023/08/11 04:07:55;;;;;;;5.20;3.47;;;;;;;16.82;87.59;95260.63;4985624;28;20174;-76
2023/08/11 04:10:21;;;;;;;9.88;3.75;;;;;;;17.06;87.31;95258.63;4987373;28;20219;-76
2023/08/11 04:12:46;;;;;;;7.88;3.33;;;;;;;17.25;87.03;95269.84;4986961;28;20187;-75
2023/08/11 04:15:11;;;;;;;6.45;3.15;;;;;;;17.46;86.36;95279.78;4988739;28;20233;-76
2023/08/11 04:17:37;;;;;;;4.88;3.67;;;;;;;17.54;85.10;95257.25;4993483;28;20573;-76
2023/08/11 04:20:12;;;;;;;6.20;2.80;;;;;;;17.89;83.94;95275.63;4990372;28;20169;-76
2023/08/11 04:22:38;;;;;;;4.65;3.42;;;;;;;18.18;83.16;95274.41;4994677;28;20246;-75
2023/08/11 04:25:05;;;;;;;4.78;3.10;;;;;;;18.51;81.95;95276.13;4993941;28;20185;-75
2023/08/11 04:27:31;;;;;;;7.25;3.10;;;;;;;18.66;79.65;95257.69;4986645;28;20178;-74
2023/08/11 04:29:57;;;;;;;4.78;2.20;;;;;;;19.19;79.31;95286.22;4993048;28;20189;-73
2023/08/11 04:32:22;;;;;;;5.57;2.53;;;;;;;19.62;78.34;95281.78;4993161;28;20181;-73
2023/08/11 04:34:49;;;;;;;3.65;2.30;;;;;;;20.04;77.53;95280.97;4993382;28;20541;-74
2023/08/11 04:37:15;;;;;;;4.05;2.30;;;;;;;20.44;75.27;95289.19;4989256;28;20204;-74
2023/08/11 04:39:40;;;;;;;7.18;2.30;;;;;;;20.81;73.69;95282.91;4993017;28;20173;-74
2023/08/11 04:42:07;;;;;;;2.65;2.00;;;;;;;21.22;71.47;95291.81;4993202;28;20188;-74
2023/08/11 04:44:33;;;;;;;4.68;2.03;;;;;;;21.64;69.21;95300.41;4992845;28;20177;-74
2023/08/11 04:46:59;;;;;;;5.25;1.83;;;;;;;21.98;67.74;95302.53;4992839;28;20569;-74
2023/08/11 04:49:25;;;;;;;4.88;2.00;;;;;;;22.08;66.57;95305.22;4988314;28;20177;-74
2023/08/11 04:51:51;;;;;;;2.30;1.73;;;;;;;22.24;66.29;95300.59;4992907;28;20200;-74
2023/08/11 04:54:17;;;;;;;2.05;1.85;;;;;;;22.77;65.09;95307.16;4990211;28;20721;-74
2023/08/11 04:56:43;;;;;;;4.78;2.00;;;;;;;23.18;64.18;95294.28;4992346;28;20181;-75
2023/08/11 04:59:09;;;;;;;3.22;2.03;;;;;;;23.81;62.02;95319.38;4986154;28;20209;-75
2023/08/11 05:01:35;;;;;;;2.72;2.38;;;;;;;24.27;60.21;95313.59;4991509;28;20256;-75
2023/08/11 05:04:00;;;;;;;4.20;2.17;;;;;;;24.75;59.19;95303.59;4991951;28;20179;-75
2023/08/11 05:06:26;;;;;;;1.80;1.65;;;;;;;25.34;57.76;95313.09;4992454;28;20177;-75
2023/08/11 05:08:51;;;;;;;1.70;1.60;;;;;;;25.88;55.63;95318.69;4990896;28;20173;-75
2023/08/11 05:11:17;;;;;;;2.88;2.13;;;;;;;26.02;54.07;95320.66;4992900;28;20204;-75
2023/08/11 05:13:43;;;;;;;23.02;3.88;;;;;;;26.30;53.46;95295.31;4992565;28;20185;-75
2023/08/11 05:16:09;;;;;;;3.97;1.95;;;;;;;27.00;52.40;95320.13;4992363;28;20643;-74
2023/08/11 05:18:35;;;;;;;3.90;2.72;;;;;;;27.33;50.82;95301.81;4988021;28;20176;-74
2023/08/11 05:21:01;;;;;;;2.97;1.70;;;;;;;28.02;49.24;95312.41;4992337;28;20168;-75
2023/08/11 05:23:26;;;;;;;2.33;1.88;;;;;;;28.60;48.26;95309.53;4991980;28;20632;-75
2023/08/11 05:25:52;;;;;;;9.55;2.28;;;;;;;28.80;47.64;95281.84;4991831;28;20181;-75
2023/08/11 05:28:18;;;;;;;3.97;2.58;;;;;;;29.61;46.23;95322.03;4991925;28;20177;-75
2023/08/11 05:30:44;;;;;;;5.75;2.03;;;;;;;30.09;44.86;95330.00;4991765;28;20581;-75
2023/08/11 05:33:09;;;;;;;4.05;2.22;;;;;;;30.47;44.01;95335.47;4991797;28;20181;-74
2023/08/11 05:35:35;;;;;;;9.02;2.60;;;;;;;30.89;43.02;95341.91;4991991;28;20195;-75
2023/08/11 05:38:01;;;;;;;2.10;1.92;;;;;;;31.34;41.64;95338.63;4991832;28;20675;-75
2023/08/11 05:40:27;;;;;;;4.65;2.00;;;;;;;31.57;41.12;95342.59;4991718;28;20165;-75
2023/08/11 05:42:53;;;;;;;3.38;2.10;;;;;;;31.63;41.02;95335.09;4984224;28;20185;-75
2023/08/11 05:45:18;;;;;;;3.03;2.72;;;;;;;31.92;40.31;95340.44;4991654;28;20169;-75
2023/08/11 05:47:44;;;;;;;3.22;2.38;;;;;;;32.16;39.19;95340.56;4991789;28;20192;-75
2023/08/11 05:50:09;;;;;;;3.60;2.50;;;;;;;32.64;38.75;95347.25;4974408;28;20177;-75
2023/08/11 05:52:35;;;;;;;2.25;1.90;;;;;;;32.76;39.14;95339.13;4991736;28;20587;-74
2023/08/11 05:55:00;;;;;;;2.90;2.63;;;;;;;33.10;37.71;95335.16;4991820;28;20182;-75
2023/08/11 05:57:25;;;;;;;3.13;1.80;;;;;;;33.08;37.74;95350.25;4991774;28;20169;-75
2023/08/11 05:59:51;;;;;;;2.58;2.20;;;;;;;32.95;37.84;95349.47;4991443;28;20176;-74
2023/08/11 06:02:17;;;;;;;6.15;2.13;;;;;;;32.78;38.50;95346.97;4991688;28;20533;-75
2023/08/11 06:04:44;;;;;;;5.32;2.03;;;;;;;32.73;38.16;95344.44;4991092;28;20173;-74
2023/08/11 06:07:10;;;;;;;4.50;1.90;;;;;;;32.34;38.67;95343.13;4991166;28;20267;-74
2023/08/11 06:09:36;;;;;;;4.68;2.10;;;;;;;32.16;38.04;95347.94;4991020;28;20699;-74
2023/08/11 06:12:01;;;;;;;2.15;1.95;;;;;;;31.38;40.51;95353.19;4991332;28;20189;-75
2023/08/11 06:14:27;;;;;;;2.38;2.17;;;;;;;31.44;39.81;95355.38;4991844;28;20188;-75
2023/08/11 06:16:52;;;;;;;11.10;1.88;;;;;;;31.62;40.85;95345.19;4985709;28;20248;-74
2023/08/11 06:19:18;;;;;;;6.05;1.90;;;;;;;31.48;40.26;95339.19;4984439;28;20648;-77
2023/08/11 06:21:45;;;;;;;3.80;1.70;;;;;;;31.50;39.86;95351.31;4992341;28;20627;-77
2023/08/11 06:24:10;;;;;;;3.60;2.00;;;;;;;31.33;40.47;95345.19;4991273;28;20235;-75
2023/08/11 06:26:36;;;;;;;2.88;2.15;;;;;;;30.92;41.16;95349.41;4986972;28;20684;-74
2023/08/11 06:29:03;;;;;;;2.72;1.95;;;;;;;30.78;42.72;95350.75;4984930;28;20622;-73
2023/08/11 06:31:30;;;;;;;4.15;2.17;;;;;;;30.56;42.10;95349.06;4989524;28;20251;-76
2023/08/11 06:33:55;;;;;;;3.50;2.78;;;;;;;30.36;41.76;95345.91;4988372;28;20179;-75
2023/08/11 06:36:21;;;;;;;3.70;2.10;;;;;;;30.13;43.31;95358.09;4983357;28;20207;-75
2023/08/11 06:38:46;;;;;;;2.33;2.10;;;;;;;29.86;44.99;95342.94;4985802;28;20173;-76
2023/08/11 06:41:12;;;;;;;3.03;2.72;;;;;;;29.85;44.24;95351.41;4991521;28;20265;-75
2023/08/11 06:43:38;;;;;;;3.70;2.33;;;;;;;29.95;43.76;95348.38;4991732;28;20177;-75
2023/08/11 06:46:04;;;;;;;4.35;2.17;;;;;;;29.74;43.05;95331.94;4990634;28;20165;-74
2023/08/11 06:48:29;;;;;;;3.75;2.53;;;;;;;29.37;43.98;95355.06;4991159;28;20596;-75
2023/08/11 06:50:56;;;;;;;5.60;3.45;;;;;;;29.31;45.92;95353.59;4991169;28;20200;-75
2023/08/11 06:53:22;;;;;;;3.72;2.40;;;;;;;29.14;46.18;95357.09;4983073;28;20578;-75
2023/08/11 06:55:47;;;;;;;3.67;2.35;;;;;;;29.09;45.33;95346.38;4989535;28;20185;-75
2023/08/11 06:58:13;;;;;;;3.40;2.95;;;;;;;28.99;45.90;95345.84;4992213;28;20169;-76
2023/08/11 07:00:38;;;;;;;3.47;2.15;;;;;;;28.87;45.35;95355.41;4984677;28;20621;-75
2023/08/11 07:03:04;;;;;;;2.92;2.45;;;;;;;28.85;46.06;95360.34;4989916;28;20184;-74
2023/08/11 07:05:29;;;;;;;2.85;2.63;;;;;;;28.43;46.16;95356.31;4991604;28;20185;-75
2023/08/11 07:07:55;;;;;;;3.75;2.70;;;;;;;28.25;46.42;95356.53;4990616;28;20177;-78
2023/08/11 07:10:21;;;;;;;2.58;2.35;;;;;;;28.13;47.91;95363.25;4991577;28;20200;-75
2023/08/11 07:12:46;;;;;;;3.13;2.33;;;;;;;28.27;46.13;95362.44;4988909;28;20172;-76
2023/08/11 07:15:11;;;;;;;2.88;2.60;;;;;;;28.33;46.10;95362.00;4990253;28;20224;-75
2023/08/11 07:17:37;;;;;;;2.72;2.50;;;;;;;28.21;44.53;95356.34;4989343;28;20181;-74
2023/08/11 07:20:03;;;;;;;5.20;2.47;;;;;;;27.80;45.48;95353.81;4989471;28;20197;-74
2023/08/11 07:22:28;;;;;;;4.65;2.50;;;;;;;27.93;47.25;95352.97;4985660;28;20703;-75
2023/08/11 07:24:53;;;;;;;3.30;3.00;;;;;;;28.11;46.68;95365.47;4989240;28;20181;-74
2023/08/11 07:27:19;;;;;;;4.90;2.90;;;;;;;28.30;48.77;95361.78;4989725;28;20204;-76
2023/08/11 07:29:44;;;;;;;4.00;2.65;;;;;;;28.64;46.74;95374.72;4989178;28;20176;-76
2023/08/11 07:32:09;;;;;;;2.53;2.33;;;;;;;28.06;46.75;95370.22;4972519;28;20352;-75
2023/08/11 07:34:36;;;;;;;3.47;2.47;;;;;;;27.63;47.59;95365.28;4989487;28;20184;-76
2023/08/11 07:37:03;;;;;;;6.03;2.67;;;;;;;27.62;47.79;95368.31;4989572;28;20177;-75
2023/08/11 07:39:28;;;;;;;5.75;2.60;;;;;;;27.46;48.26;95342.66;4989928;28;20193;-75
2023/08/11 07:41:54;;;;;;;7.65;3.90;;;;;;;27.74;48.03;95363.16;4989771;28;20303;-75
2023/08/11 07:44:19;;;;;;;4.95;2.80;;;;;;;28.09;48.17;95367.72;4989069;28;20204;-75
2023/08/11 07:46:45;;;;;;;7.03;2.50;;;;;;;28.15;48.18;95352.94;4989705;28;20173;-74
2023/08/11 07:49:10;;;;;;;4.57;2.70;;;;;;;28.43;46.32;95371.75;4990200;28;20178;-74
2023/08/11 07:51:36;;;;;;;2.80;2.60;;;;;;;28.48;45.92;95375.13;4993420;28;20211;-75
2023/08/11 07:54:01;;;;;;;5.55;2.58;;;;;;;28.66;45.90;95373.31;4991332;28;20862;-75
2023/08/11 07:56:27;;;;;;;2.83;2.53;;;;;;;28.51;43.86;95369.09;4993991;28;20177;-76
2023/08/11 07:58:53;;;;;;;3.28;2.40;;;;;;;28.07;45.83;95363.72;4993521;28;20566;-75
2023/08/11 08:01:18;;;;;;;3.80;2.67;;;;;;;26.92;47.69;95347.88;4993687;28;20169;-76
2023/08/11 08:03:45;;;;;;;3.33;2.45;;;;;;;27.08;48.84;95363.78;4993599;28;20177;-76
2023/08/11 08:06:11;;;;;;;4.13;2.90;;;;;;;27.02;49.77;95373.91;4992017;28;20183;-76
2023/08/11 08:08:36;;;;;;;4.72;2.85;;;;;;;26.79;48.49;95364.06;4992164;28;20181;-76
2023/08/11 08:11:02;;;;;;;5.07;2.65;;;;;;;27.47;49.78;95366.72;4992057;28;20197;-76
2023/08/11 08:13:28;;;;;;;6.00;2.72;;;;;;;28.34;48.39;95360.88;4991754;28;20169;-76
2023/08/11 08:15:54;;;;;;;4.55;2.45;;;;;;;28.68;46.88;95365.66;4992941;28;20610;-76
2023/08/11 08:18:20;;;;;;;3.78;2.80;;;;;;;28.88;46.20;95350.78;4975886;28;20189;-76
2023/08/11 08:20:46;;;;;;;11.20;3.80;;;;;;;28.67;44.88;95350.50;4992969;28;20184;-76
2023/08/11 08:23:12;;;;;;;15.23;2.90;;;;;;;29.07;46.00;95367.56;4992287;28;20253;-76
2023/08/11 08:25:38;;;;;;;7.03;2.50;;;;;;;29.04;43.42;95351.94;4993328;28;20173;-76
2023/08/11 08:28:03;;;;;;;6.00;2.65;;;;;;;28.58;43.48;95354.28;4986931;28;20567;-77
2023/08/11 08:30:29;;;;;;;4.53;2.30;;;;;;;28.27;45.19;95362.44;4992587;28;20242;-77
2023/08/11 08:32:54;;;;;;;4.18;2.78;;;;;;;27.98;44.65;95352.81;4990006;28;20679;-79
2023/08/11 08:35:19;;;;;;;6.75;2.83;;;;;;;28.07;46.53;95350.97;4992895;28;20192;-79
2023/08/11 08:37:45;;;;;;;4.05;2.35;;;;;;;28.30;44.58;95356.38;4993159;28;20259;-77
2023/08/11 08:40:12;;;;;;;3.55;2.45;;;;;;;28.13;44.83;95363.25;4993990;28;20612;-78
2023/08/11 08:42:38;;;;;;;4.75;2.67;;;;;;;27.44;46.04;95332.16;4994264;28;20172;-79
2023/08/11 08:45:05;;;;;;;2.78;2.38;;;;;;;27.09;45.52;95352.66;4989362;28;20216;-78
2023/08/11 08:47:32;;;;;;;4.65;2.40;;;;;;;26.87;47.61;95360.66;4988030;28;20184;-78
2023/08/11 08:49:58;;;;;;;4.28;2.45;;;;;;;26.90;49.97;95346.53;4993748;28;20185;-76
2023/08/11 08:52:24;;;;;;;4.43;2.80;;;;;;;26.81;48.09;95345.66;4993487;28;20248;-79
2023/08/11 08:54:50;;;;;;;2.75;2.55;;;;;;;26.76;47.89;95351.16;4991411;28;20576;-80
2023/08/11 08:57:17;;;;;;;2.55;2.15;;;;;;;26.42;48.43;95330.75;4990569;28;20177;-77
2023/08/11 08:59:42;;;;;;;4.03;2.20;;;;;;;26.30;47.28;95357.41;4979086;28;20531;-76
2023/08/11 09:02:10;;;;;;;4.03;2.28;;;;;;;26.06;48.21;95354.03;4992059;28;20200;-76
2023/08/11 09:04:36;;;;;;;2.78;2.17;;;;;;;25.89;49.74;95320.31;4992725;28;20189;-77
2023/08/11 09:07:01;;;;;;;6.35;2.13;;;;;;;26.01;48.26;95356.84;4985356;28;20177;-76
2023/08/11 09:09:30;;;;;;;9.57;2.53;;;;;;;25.92;51.72;95341.31;4986486;28;20173;-76
2023/08/11 09:11:56;;;;;;;2.97;2.20;;;;;;;26.20;50.75;95352.19;4987572;28;20251;-77
2023/08/11 09:14:22;;;;;;;2.50;2.30;;;;;;;26.00;48.08;95339.03;4992567;28;20264;-78
2023/08/11 09:16:51;;;;;;;2.58;2.03;;;;;;;26.08;47.64;95336.44;4988699;28;20240;-78
2023/08/11 09:19:17;;;;;;;3.72;2.20;;;;;;;26.52;49.16;95349.47;4984710;28;20189;-77
2023/08/11 09:21:43;;;;;;;2.30;2.10;;;;;;;27.21;49.26;95349.44;4992248;28;20703;-77
2023/08/11 09:24:11;;;;;;;2.60;2.30;;;;;;;27.73;46.19;95332.59;4986980;28;20180;-77
2023/08/11 09:26:37;;;;;;;2.17;1.98;;;;;;;28.08;45.83;95340.94;4991436;28;20177;-77
2023/08/11 09:29:05;;;;;;;2.15;1.95;;;;;;;28.27;45.47;95346.97;4993145;28;20180;-76
2023/08/11 09:31:30;;;;;;;2.88;1.83;;;;;;;28.58;42.73;95336.13;4974947;28;20589;-77
2023/08/11 09:33:56;;;;;;;3.30;2.13;;;;;;;28.30;41.89;95338.22;4990581;28;20184;-78
2023/08/11 09:36:21;;;;;;;6.47;2.17;;;;;;;27.98;44.72;95341.19;4993264;28;20173;-77
2023/08/11 09:38:48;;;;;;;4.38;2.20;;;;;;;28.00;44.44;95337.06;4989890;28;20200;-77
2023/08/11 09:41:14;;;;;;;3.15;2.10;;;;;;;28.08;44.56;95344.44;4991285;28;20188;-76
2023/08/11 09:43:46;;;;;;;2.83;2.25;;;;;;;28.07;44.26;95342.03;4990017;28;20178;-77
2023/08/11 09:46:11;;;;;;;2.83;2.25;;;;;;;27.81;44.64;95327.53;4983108;28;20256;-77
2023/08/11 09:48:36;;;;;;;6.30;2.08;;;;;;;27.47;46.81;95331.56;4992369;28;20720;-77
2023/08/11 09:51:04;;;;;;;6.95;2.50;;;;;;;27.55;45.04;95332.75;4988847;28;20189;-78
2023/08/11 09:53:33;;;;;;;3.45;2.17;;;;;;;27.09;46.07;95333.75;4993034;28;20267;-78
2023/08/11 09:55:59;;;;;;;2.03;1.90;;;;;;;27.13;45.22;95333.94;4951720;28;20227;-77
2023/08/11 09:58:27;;;;;;;3.63;1.88;;;;;;;27.04;46.40;95340.06;4992818;28;20184;-77
2023/08/11 10:00:54;;;;;;;3.80;2.78;;;;;;;26.88;47.45;95325.25;4982589;28;20217;-76
2023/08/11 10:03:28;;;;;;;2.67;2.03;;;;;;;26.87;48.87;95333.66;4986869;28;20180;-77
2023/08/11 10:05:58;;;;;;;2.17;1.92;;;;;;;26.67;45.36;95332.94;4975150;28;20613;-78
2023/08/11 10:08:26;;;;;;;3.15;1.70;;;;;;;26.13;45.60;95316.66;4984129;28;20181;-78
2023/08/11 10:10:52;;;;;;;2.88;1.90;;;;;;;25.87;47.16;95322.50;4992210;28;20193;-78
2023/08/11 10:13:26;;;;;;;2.13;1.92;;;;;;;25.89;47.44;95327.59;4992434;28;20527;-78
2023/08/11 10:15:53;;;;;;;4.97;2.45;;;;;;;25.85;46.48;95326.59;4988653;28;20236;-78
2023/08/11 10:18:20;;;;;;;4.55;2.15;;;;;;;25.61;47.38;95321.31;4979156;28;20200;-77
2023/08/11 10:20:46;;;;;;;2.50;2.08;;;;;;;25.23;49.74;95322.41;4988405;28;20184;-76
2023/08/11 10:23:13;;;;;;;3.10;2.33;;;;;;;25.00;50.90;95316.78;4992163;28;20173;-77
2023/08/11 10:25:39;;;;;;;4.63;2.42;;;;;;;24.96;50.95;95299.59;4992110;28;20247;-77
2023/08/11 10:28:10;;;;;;;2.80;2.17;;;;;;;25.00;50.84;95315.97;4992339;28;20177;-77
2023/08/11 10:30:36;;;;;;;2.38;2.17;;;;;;;25.01;49.24;95307.59;4972739;28;20213;-76
2023/08/11 10:33:09;;;;;;;5.22;2.15;;;;;;;24.97;49.83;95309.28;4991349;28;20747;-77
2023/08/11 10:35:47;;;;;;;2.67;2.10;;;;;;;24.94;51.27;95315.25;4989713;28;20173;-77
2023/08/11 10:38:24;;;;;;;5.07;2.20;;;;;;;24.84;52.42;95293.78;4990546;28;20170;-77
2023/08/11 10:40:49;;;;;;;3.83;2.30;;;;;;;24.93;53.03;95302.06;4983672;28;20160;-77
2023/08/11 10:43:18;;;;;;;5.28;2.38;;;;;;;24.80;52.39;95284.69;4988983;28;20275;-76
2023/08/11 10:45:44;;;;;;;3.00;2.22;;;;;;;24.94;52.13;95306.34;4990407;28;20185;-77
2023/08/11 10:48:11;;;;;;;2.22;2.03;;;;;;;24.96;52.62;95299.59;4990298;28;20193;-76
2023/08/11 10:50:39;;;;;;;4.43;2.40;;;;;;;24.98;52.67;95297.41;4990397;28;20204;-77
2023/08/11 10:53:04;;;;;;;1.98;1.88;;;;;;;25.07;52.62;95297.56;4984340;28;20192;-77
2023/08/11 10:55:34;;;;;;;4.65;2.95;;;;;;;25.11;52.36;95298.56;4990483;28;20212;-77
2023/08/11 10:58:14;;;;;;;4.70;2.30;;;;;;;25.17;51.86;95290.13;4990482;28;20428;-77
2023/08/11 11:00:40;;;;;;;2.53;2.20;;;;;;;25.30;51.49;95293.97;4989081;28;20187;-77
2023/08/11 11:03:06;;;;;;;4.20;2.13;;;;;;;25.42;51.39;95293.56;4990338;28;20176;-76
2023/08/11 11:05:32;;;;;;;4.03;2.03;;;;;;;25.29;49.98;95286.19;4990180;28;20181;-77
2023/08/11 11:07:57;;;;;;;3.58;2.13;;;;;;;25.28;49.48;95281.88;4990469;28;20271;-76
2023/08/11 11:10:23;;;;;;;6.10;2.30;;;;;;;25.31;49.98;95309.06;4990595;28;20251;-77
2023/08/11 11:12:48;;;;;;;4.93;2.50;;;;;;;25.36;51.19;95308.19;4990244;28;20665;-76
2023/08/11 11:15:15;;;;;;;3.05;2.17;;;;;;;25.36;50.27;95303.59;4991109;28;20635;-76
2023/08/11 11:17:40;;;;;;;2.42;2.08;;;;;;;25.33;50.10;95281.81;4991235;28;20636;-76
2023/08/11 11:20:07;;;;;;;3.35;2.15;;;;;;;25.46;51.45;95300.75;4991220;28;20181;-75
2023/08/11 11:22:32;;;;;;;4.00;2.55;;;;;;;25.55;51.17;95298.97;4991824;28;20180;-75
2023/08/11 11:25:01;;;;;;;5.10;2.60;;;;;;;25.61;52.24;95288.13;4994816;28;20181;-76
2023/08/11 11:27:26;;;;;;;5.03;2.40;;;;;;;25.83;51.23;95302.63;4994512;28;20260;-75
2023/08/11 11:29:58;;;;;;;3.08;2.28;;;;;;;25.83;48.65;95281.03;4977173;28;20268;-75